Pagrindinis puslapis
METAR-TAF:

METAR-TAF

Oro uostai :

Red Bluff Municipal Airport

Red Bluff, Kalifornija, Jungtinės Amerikos Valstijos

platuma: 40-09-02N, ilguma: 122-15-08W, Aukštis: 106 m

Dabartinis oras

Ataskaita buvo paskelbta 24 minutes, ne 22:54 UTC
Vėjas 12 kt iš Šiaurės/Šiaurės Vakarų
Temperatūra 20°C
Drėgmė 17%
Slėgis 1017 hPa
Matomumas: 16.1 km
Giedras dangus

METAR: KRBL 252254Z AUTO 34012KT 10SM CLR 20/M06 A3004 RMK AO2 SLP170 T02001056

Laikas: 15:18 (23:18 UTC)

Prognozė

Ataskaita buvo paskelbta 5 valandos ir 42 minutes, ne 17:36 UTC
Prognozė galioja nuo 25 metu 18 UTC su 26 metu 18 UTC
Vėjas 9 kt iš Šiaurės
Matomumas: 10 km
Giedras dangus
Nuo 25 metu 1900 UTC
Vėjas 13 kt iš Šiaurės su gūsio iki 20 kt
Matomumas: 10 km
Giedras dangus
Nuo 25 metu 2300 UTC
Vėjas 12 kt iš Šiaurės
Matomumas: 10 km
Giedras dangus
Nuo 26 metu 0300 UTC
Vėjas 8 kt iš Šiaurės/Šiaurės Vakarų
Matomumas: 10 km
Giedras dangus

TAF: KRBL 251736Z 2518/2618 35009KT P6SM SKC FM251900 35013G20KT P6SM SKC FM252300 36012KT P6SM SKC FM260300 33008KT P6SM SKC

Orai ataskaitas ir orų prognozės (METAR, TAF).

turimą stotys yra geltonos ir raudonos taškus žemėlapyje.

Perkelti pele per norėdami pamatyti stoties vardą.

Tada spustelėkite, norėdami matyti oro stebėjimo ir prognozės.

Norėdami pakeisti žemėlapį: spustelėkite ant žalios mygtukų su juodo kryžiaus žemyn,; žalią mygtuką su brūkšneliu, jei norite nutolinti; arba žalių rodyklių gretimoms žemėlapius.


METAR-TAF: